Riverdale, Illinois
Current Conditions -  °F | °C
As of 7:55 AM on Friday 31 Oct 2014 (Local Time) from KIGQ Reporting Station
Overcast Overcast  
Wind Chill: 30°   Ceiling: 4300
Heat Index: 38°   Visibility: 10mi
Dew Point: 28°   Wind: 12mph
Humidity: 69%   Direction: 320°NW
Pressure: 30.08"   Gusts: 28mph
Location:  41.63°N, 87.63°W
Report Text: KIGQ 311255Z AUTO 32010G24KT 10SM SCT031 BKN043 OVC090 03/M02 A3008 RMK AO2 T00321020
Loading
Personal Weather Stations






























Interactive Weather Map
Tropical Storm Tracking
New forecast layout! Learn more

10-Day Weather Forecast

Advertisements
Track Severe Weather on mobile